Terminal Aerodrome Forecast
Issued by NWS

Home | Current Version | Previous Version | Text Only | Print | Product List | Glossary On
Versions: 1 2 3 4 5 6 7 8 9 10 11 12 13 14 15 16
000
FTUS46 KMFR 230500
TAFOTH
TAF
KOTH 230520Z 2306/2406 14005KT P6SM OVC035
     FM230900 14005KT 5SM -RA BR SCT020 OVC035
     FM231700 16010KT P6SM OVC040
     FM240200 16012G20KT P6SM -RA SCT025 OVC040=

USA.gov is the U.S. government's official web portal to all federal, state and local government web resources and services.